createdAt,value
2023-01-03T00:02:47.233Z,101132.41
2023-01-03T00:05:37.455Z,101132.13
2023-01-03T00:08:27.412Z,101137.31
2023-01-03T00:11:16.921Z,101139.13
2023-01-03T00:14:04.671Z,101141.00
2023-01-03T00:16:54.691Z,101144.63
2023-01-03T00:19:45.445Z,101143.31
2023-01-03T00:22:35.422Z,101142.06
2023-01-03T00:25:24.028Z,101145.75
2023-01-03T00:28:12.771Z,101143.59
2023-01-03T00:31:07.465Z,101149.59
2023-01-03T00:33:58.373Z,101151.00
2023-01-03T00:36:47.102Z,101154.31
2023-01-03T00:39:37.098Z,101152.00
2023-01-03T00:42:25.756Z,101149.34
2023-01-03T00:45:19.253Z,101159.56
2023-01-03T00:48:08.894Z,101172.78
2023-01-03T00:50:57.801Z,101172.78
2023-01-03T00:53:48.454Z,101172.78
2023-01-03T00:56:40.088Z,101182.00
2023-01-03T00:59:28.732Z,101182.19
2023-01-03T01:02:20.310Z,101182.19
2023-01-03T01:05:09.638Z,101190.19
2023-01-03T01:07:58.598Z,101192.25
2023-01-03T01:11:01.853Z,101194.28
2023-01-03T01:13:52.601Z,101202.94
2023-01-03T01:16:41.229Z,101199.44
2023-01-03T01:19:31.750Z,101205.63
2023-01-03T01:22:20.388Z,101213.00
2023-01-03T01:25:09.181Z,101219.19
2023-01-03T01:27:57.789Z,101219.19
2023-01-03T01:30:47.803Z,101225.34
2023-01-03T01:33:37.973Z,101231.91
2023-01-03T01:36:28.455Z,101233.13
2023-01-03T01:39:19.543Z,101243.28
2023-01-03T01:42:30.882Z,101248.41
2023-01-03T01:45:20.064Z,101251.09
2023-01-03T01:48:14.338Z,101253.78
2023-01-03T01:51:02.956Z,101249.81
2023-01-03T01:53:53.426Z,101255.34
2023-01-03T01:56:44.600Z,101263.91
2023-01-03T01:59:33.772Z,101258.22
2023-01-03T02:02:24.363Z,101271.38
2023-01-03T02:05:15.256Z,101266.50
2023-01-03T02:08:04.139Z,101266.03
2023-01-03T02:11:22.203Z,101268.53
2023-01-03T02:14:25.553Z,101271.84
2023-01-03T02:17:19.316Z,101273.03
2023-01-03T02:20:19.808Z,101278.78
2023-01-03T02:23:28.188Z,101285.06
2023-01-03T02:26:35.300Z,101276.25
2023-01-03T02:30:04.284Z,101275.91
2023-01-03T02:32:54.871Z,101278.84
2023-01-03T02:35:52.633Z,101279.41
2023-01-03T02:38:49.307Z,101288.09
2023-01-03T02:41:43.802Z,101284.41
2023-01-03T02:44:35.596Z,101293.06
2023-01-03T02:47:27.413Z,101282.63
2023-01-03T02:50:16.385Z,101281.91
2023-01-03T02:53:08.066Z,101291.97
2023-01-03T02:55:58.480Z,101279.31
2023-01-03T02:58:50.134Z,101285.03
2023-01-03T03:01:44.967Z,101289.84
2023-01-03T03:04:37.155Z,101294.34
2023-01-03T03:07:28.005Z,101290.47
2023-01-03T03:10:34.130Z,101293.06
2023-01-03T03:13:26.551Z,101291.66
2023-01-03T03:16:20.092Z,101296.00
2023-01-03T03:19:38.798Z,101296.69
2023-01-03T03:22:49.749Z,101296.94
2023-01-03T03:25:41.980Z,101292.53
2023-01-03T03:28:37.490Z,101294.91
2023-01-03T03:31:31.942Z,101292.53
2023-01-03T03:34:23.747Z,101301.53
2023-01-03T03:37:16.854Z,101296.66
2023-01-03T03:40:26.329Z,101305.91
2023-01-03T03:43:39.933Z,101301.84
2023-01-03T03:46:33.053Z,101307.56
2023-01-03T03:49:41.903Z,101310.59
2023-01-03T03:52:32.548Z,101314.66
2023-01-03T03:55:24.422Z,101317.72
2023-01-03T03:58:15.725Z,101321.94
2023-01-03T04:01:05.125Z,101323.88
2023-01-03T04:03:55.562Z,101327.28
2023-01-03T04:06:48.073Z,101333.81
2023-01-03T04:09:36.674Z,101330.50
2023-01-03T04:12:26.765Z,101339.16
2023-01-03T04:15:15.648Z,101332.53
2023-01-03T04:18:04.346Z,101338.47
2023-01-03T04:20:52.963Z,101342.97
2023-01-03T04:23:41.618Z,101339.66
2023-01-03T04:26:30.258Z,101337.50
2023-01-03T04:29:20.189Z,101336.50
2023-01-03T04:32:10.068Z,101343.25
2023-01-03T04:34:58.784Z,101350.13
2023-01-03T04:37:47.412Z,101351.31
2023-01-03T04:40:36.585Z,101363.31
2023-01-03T04:43:42.999Z,101362.31
2023-01-03T04:46:34.785Z,101369.03
2023-01-03T04:49:23.425Z,101366.19
2023-01-03T04:52:12.007Z,101380.38
2023-01-03T04:55:00.567Z,101376.69
2023-01-03T04:57:49.261Z,101369.03
2023-01-03T05:00:37.831Z,101373.19
2023-01-03T05:03:28.217Z,101381.38
2023-01-03T05:06:17.400Z,101386.84
2023-01-03T05:09:06.006Z,101384.38
2023-01-03T05:11:54.626Z,101388.41
2023-01-03T05:14:43.205Z,101385.91
2023-01-03T05:17:31.926Z,101386.03
2023-01-03T05:20:41.391Z,101386.50
2023-01-03T05:23:47.780Z,101398.03
2023-01-03T05:26:39.774Z,101395.06
2023-01-03T05:29:29.248Z,101400.06
2023-01-03T05:32:17.983Z,101404.66
2023-01-03T05:35:07.535Z,101402.72
2023-01-03T05:37:57.569Z,101409.09
2023-01-03T05:40:46.234Z,101415.72
2023-01-03T05:43:35.095Z,101415.94
2023-01-03T05:46:23.822Z,101426.44
2023-01-03T05:49:12.540Z,101430.13
2023-01-03T05:52:01.174Z,101431.66
2023-01-03T05:54:51.184Z,101433.22
2023-01-03T05:57:39.951Z,101439.88
2023-01-03T06:00:28.529Z,101447.22
2023-01-03T06:03:17.147Z,101433.41
2023-01-03T06:06:06.401Z,101434.88
2023-01-03T06:08:55.735Z,101433.22
2023-01-03T06:11:46.001Z,101438.19
2023-01-03T06:14:34.643Z,101447.44
2023-01-03T06:17:41.910Z,101441.56
2023-01-03T06:20:31.190Z,101451.03
2023-01-03T06:23:19.830Z,101444.38
2023-01-03T06:26:08.556Z,101449.91
2023-01-03T06:28:58.560Z,101451.28
2023-01-03T06:31:47.225Z,101454.59
2023-01-03T06:34:35.816Z,101454.50
2023-01-03T06:37:24.514Z,101456.03
2023-01-03T06:40:13.785Z,101456.03
2023-01-03T06:43:02.776Z,101454.00
2023-01-03T06:46:12.513Z,101457.69
2023-01-03T06:49:18.583Z,101458.91
2023-01-03T06:52:30.849Z,101453.06
2023-01-03T06:55:20.465Z,101458.78
2023-01-03T06:58:09.202Z,101468.47
2023-01-03T07:00:59.888Z,101471.25
2023-01-03T07:03:48.796Z,101468.75
2023-01-03T07:06:37.411Z,101476.94
2023-01-03T07:09:26.012Z,101478.78
2023-01-03T07:12:32.243Z,101480.97
2023-01-03T07:15:23.620Z,101484.19
2023-01-03T07:18:16.117Z,101496.53
2023-01-03T07:21:07.448Z,101492.97
2023-01-03T07:23:56.450Z,101497.88
2023-01-03T07:26:45.056Z,101494.88
2023-01-03T07:29:33.692Z,101499.84
2023-01-03T07:32:22.293Z,101502.00
2023-01-03T07:35:12.331Z,101499.53
2023-01-03T07:38:00.946Z,101509.56
2023-01-03T07:40:49.537Z,101512.25
2023-01-03T07:43:38.092Z,101511.56
2023-01-03T07:46:28.448Z,101514.22
2023-01-03T07:49:17.110Z,101514.22
2023-01-03T07:52:07.166Z,101523.59
2023-01-03T07:54:55.812Z,101526.13
2023-01-03T07:57:44.420Z,101535.97
2023-01-03T08:00:33.054Z,101530.63
2023-01-03T08:03:21.729Z,101538.66
2023-01-03T08:06:12.434Z,101541.31
2023-01-03T08:09:20.215Z,101546.69
2023-01-03T08:12:28.010Z,101541.47
2023-01-03T08:15:16.799Z,101545.81
2023-01-03T08:18:05.801Z,101557.38
2023-01-03T08:20:55.656Z,101552.88
2023-01-03T08:23:44.932Z,101553.69
2023-01-03T08:26:34.887Z,101559.03
2023-01-03T08:29:23.601Z,101559.03
2023-01-03T08:32:12.285Z,101559.88
2023-01-03T08:35:01.066Z,101556.31
2023-01-03T08:37:50.876Z,101566.19
2023-01-03T08:40:42.283Z,101568.31
2023-01-03T08:43:36.557Z,101561.97
2023-01-03T08:46:25.234Z,101559.78
2023-01-03T08:49:13.994Z,101560.28
2023-01-03T08:52:02.552Z,101564.44
2023-01-03T08:54:51.388Z,101568.25
2023-01-03T08:57:40.297Z,101571.09
2023-01-03T09:00:30.527Z,101567.31
2023-01-03T09:03:19.429Z,101580.16
2023-01-03T09:06:08.460Z,101581.50
2023-01-03T09:08:57.032Z,101576.06
2023-01-03T09:11:48.419Z,101588.41
2023-01-03T09:14:37.044Z,101583.44
2023-01-03T09:17:27.067Z,101588.91
2023-01-03T09:20:19.067Z,101590.09
2023-01-03T09:23:07.797Z,101595.03
2023-01-03T09:25:56.580Z,101593.66
2023-01-03T09:28:45.261Z,101594.75
2023-01-03T09:31:34.924Z,101596.84
2023-01-03T09:34:25.512Z,101596.44
2023-01-03T09:37:14.379Z,101602.69
2023-01-03T09:40:03.028Z,101605.19
2023-01-03T09:43:10.167Z,101606.28
2023-01-03T09:46:01.333Z,101598.53
2023-01-03T09:48:51.150Z,101606.00
2023-01-03T09:52:01.256Z,101604.03
2023-01-03T09:55:07.430Z,101603.41
2023-01-03T09:58:13.812Z,101606.78
2023-01-03T10:01:31.217Z,101607.16
2023-01-03T10:04:53.640Z,101603.59
2023-01-03T10:08:00.943Z,101609.59
2023-01-03T10:10:54.311Z,101604.56
2023-01-03T10:13:54.184Z,101608.16
2023-01-03T10:16:51.575Z,101602.34
2023-01-03T10:19:54.051Z,101610.84
2023-01-03T10:22:42.709Z,101614.53
2023-01-03T10:25:32.706Z,101613.88
2023-01-03T10:28:24.195Z,101607.53
2023-01-03T10:31:25.590Z,101610.06
2023-01-03T10:34:14.197Z,101604.34
2023-01-03T10:37:03.057Z,101596.75
2023-01-03T10:40:03.723Z,101597.66
2023-01-03T10:42:55.495Z,101592.56
2023-01-03T10:45:55.751Z,101587.22
2023-01-03T10:49:25.221Z,101599.13
2023-01-03T10:51:57.616Z,101586.53
2023-01-03T10:54:51.152Z,101581.38
2023-01-03T10:57:43.917Z,101580.78
2023-01-03T11:00:36.221Z,101585.41
2023-01-03T11:03:26.656Z,101585.78
2023-01-03T11:06:17.081Z,101594.59
2023-01-03T11:09:07.552Z,101584.84
2023-01-03T11:12:04.721Z,101582.81
2023-01-03T11:14:55.989Z,101576.50
2023-01-03T11:17:56.188Z,101580.22
2023-01-03T11:20:49.217Z,101579.63
2023-01-03T11:24:01.693Z,101574.38
2023-01-03T11:26:53.276Z,101570.75
2023-01-03T11:29:52.860Z,101567.06
2023-01-03T11:32:52.505Z,101560.44
2023-01-03T11:35:53.924Z,101559.38
2023-01-03T11:38:58.431Z,101557.50
2023-01-03T11:41:57.175Z,101564.72
2023-01-03T11:45:06.666Z,101562.69
2023-01-03T11:48:03.843Z,101556.09
2023-01-03T11:50:57.165Z,101560.09
2023-01-03T11:53:57.791Z,101556.47
2023-01-03T11:56:46.862Z,101555.84
2023-01-03T11:59:50.256Z,101559.34
2023-01-03T12:02:55.918Z,101568.84
2023-01-03T12:05:47.326Z,101564.84
2023-01-03T12:08:49.544Z,101562.16
2023-01-03T12:11:55.792Z,101561.16
2023-01-03T12:14:48.114Z,101559.34
2023-01-03T12:17:42.145Z,101547.53
2023-01-03T12:20:34.073Z,101552.06
2023-01-03T12:23:31.858Z,101549.59
2023-01-03T12:26:24.417Z,101560.16
2023-01-03T12:29:18.098Z,101557.13
2023-01-03T12:32:11.212Z,101561.16
2023-01-03T12:35:16.902Z,101557.81
2023-01-03T12:38:07.438Z,101557.94
2023-01-03T12:40:58.586Z,101553.75
2023-01-03T12:43:55.755Z,101549.97
2023-01-03T12:46:48.648Z,101545.09
2023-01-03T12:49:40.673Z,101545.56
2023-01-03T12:52:30.126Z,101539.09
2023-01-03T12:55:22.495Z,101543.44
2023-01-03T12:58:20.903Z,101539.75
2023-01-03T13:01:15.702Z,101546.03
2023-01-03T13:04:10.176Z,101542.09
2023-01-03T13:07:04.642Z,101538.41
2023-01-03T13:10:00.766Z,101532.41
2023-01-03T13:12:52.785Z,101530.09
2023-01-03T13:15:41.515Z,101529.81
2023-01-03T13:18:37.185Z,101536.16
2023-01-03T13:21:51.115Z,101525.28
2023-01-03T13:24:44.860Z,101530.94
2023-01-03T13:27:38.241Z,101532.78
2023-01-03T13:30:31.301Z,101528.66
2023-01-03T13:33:21.863Z,101523.44
2023-01-03T13:36:11.915Z,101535.41
2023-01-03T13:39:01.699Z,101539.75
2023-01-03T13:41:55.474Z,101542.91
2023-01-03T13:44:44.400Z,101536.66
2023-01-03T13:47:43.248Z,101538.38
2023-01-03T13:50:35.449Z,101532.72
2023-01-03T13:53:32.257Z,101531.75
2023-01-03T13:56:23.544Z,101535.44
2023-01-03T13:59:18.680Z,101540.44
2023-01-03T14:02:31.386Z,101542.22
2023-01-03T14:05:48.198Z,101542.50
2023-01-03T14:08:45.273Z,101544.84
2023-01-03T14:11:49.186Z,101547.19
2023-01-03T14:14:40.021Z,101543.75
2023-01-03T14:17:32.446Z,101548.22
2023-01-03T14:20:25.510Z,101544.72
2023-01-03T14:26:25.945Z,101552.28
2023-01-03T14:29:19.637Z,101561.44
2023-01-03T14:32:08.417Z,101561.31
2023-01-03T14:34:57.453Z,101560.94
2023-01-03T14:37:48.019Z,101560.63
2023-01-03T14:40:36.635Z,101561.56
2023-01-03T14:43:28.917Z,101555.28
2023-01-03T14:46:17.579Z,101557.41
2023-01-03T14:49:09.654Z,101559.91
2023-01-03T14:52:04.904Z,101558.97
2023-01-03T14:54:58.649Z,101560.28
2023-01-03T14:57:52.755Z,101567.25
2023-01-03T15:00:42.745Z,101563.63
2023-01-03T15:03:50.333Z,101578.63
2023-01-03T15:06:39.159Z,101567.09
2023-01-03T15:09:28.846Z,101570.44
2023-01-03T15:12:18.028Z,101572.22
2023-01-03T15:15:14.793Z,101577.81
2023-01-03T15:18:09.221Z,101589.06
2023-01-03T15:20:58.977Z,101591.19
2023-01-03T15:23:49.055Z,101585.47
2023-01-03T15:26:42.727Z,101584.81
2023-01-03T15:29:45.615Z,101584.34
2023-01-03T15:32:46.864Z,101588.84
2023-01-03T15:35:40.041Z,101591.50
2023-01-03T15:38:33.740Z,101586.00
2023-01-03T15:41:39.077Z,101590.16
2023-01-03T15:44:29.014Z,101600.88
2023-01-03T15:47:19.553Z,101599.53
2023-01-03T15:50:08.844Z,101607.97
2023-01-03T15:52:58.831Z,101607.28
2023-01-03T15:55:47.893Z,101613.47
2023-01-03T15:58:37.602Z,101606.91
2023-01-03T16:01:26.540Z,101612.25
2023-01-03T16:04:15.292Z,101608.94
2023-01-03T16:07:04.096Z,101616.31
2023-01-03T16:09:54.107Z,101620.16
2023-01-03T16:12:44.141Z,101614.38
2023-01-03T16:15:32.925Z,101618.66
2023-01-03T16:18:26.804Z,101620.34
2023-01-03T16:21:15.734Z,101622.34
2023-01-03T16:24:04.990Z,101620.91
2023-01-03T16:26:56.163Z,101626.66
2023-01-03T16:29:44.904Z,101617.22
2023-01-03T16:32:34.213Z,101613.41
2023-01-03T16:35:22.874Z,101614.38
2023-01-03T16:38:13.799Z,101623.56
2023-01-03T16:41:02.644Z,101620.69
2023-01-03T16:43:54.372Z,101621.56
2023-01-03T16:46:43.233Z,101617.97
2023-01-03T16:49:34.340Z,101618.16
2023-01-03T16:52:26.807Z,101615.19
2023-01-03T16:55:17.915Z,101614.13
2023-01-03T16:58:06.750Z,101615.59
2023-01-03T17:00:56.867Z,101619.47
2023-01-03T17:03:45.587Z,101628.53
2023-01-03T17:06:38.328Z,101624.63
2023-01-03T17:09:31.958Z,101620.97
2023-01-03T17:12:24.657Z,101620.53
2023-01-03T17:15:13.853Z,101616.59
2023-01-03T17:18:03.984Z,101614.41
2023-01-03T17:20:55.878Z,101619.09
2023-01-03T17:23:45.413Z,101626.00
2023-01-03T17:26:35.923Z,101626.13
2023-01-03T17:29:27.503Z,101630.06
2023-01-03T17:32:19.174Z,101630.81
2023-01-03T17:35:14.505Z,101628.56
2023-01-03T17:38:25.125Z,101621.47
2023-01-03T17:41:18.492Z,101634.84
2023-01-03T17:44:07.206Z,101641.75
2023-01-03T17:47:13.895Z,101646.59
2023-01-03T17:50:02.524Z,101641.22
2023-01-03T17:52:56.068Z,101643.88
2023-01-03T17:55:49.575Z,101647.22
2023-01-03T17:58:39.310Z,101641.84
2023-01-03T18:01:28.058Z,101642.38
2023-01-03T18:04:16.776Z,101641.56
2023-01-03T18:07:05.525Z,101649.47
2023-01-03T18:10:00.903Z,101649.41
2023-01-03T18:12:50.044Z,101643.63
2023-01-03T18:15:38.902Z,101649.00
2023-01-03T18:18:28.928Z,101645.19
2023-01-03T18:21:22.342Z,101644.47
2023-01-03T18:24:18.787Z,101646.91
2023-01-03T18:27:10.915Z,101641.13
2023-01-03T18:29:59.759Z,101656.81
2023-01-03T18:32:48.716Z,101653.75
2023-01-03T18:35:38.744Z,101649.69
2023-01-03T18:38:30.036Z,101647.09
2023-01-03T18:41:20.976Z,101649.25
2023-01-03T18:44:19.741Z,101648.88
2023-01-03T18:47:12.752Z,101650.41
2023-01-03T18:50:01.415Z,101658.72
2023-01-03T18:52:50.459Z,101657.34
2023-01-03T18:55:39.141Z,101668.72
2023-01-03T18:58:33.072Z,101662.34
2023-01-03T19:01:23.246Z,101653.88
2023-01-03T19:04:12.081Z,101653.22
2023-01-03T19:07:00.947Z,101663.13
2023-01-03T19:09:49.573Z,101664.78
2023-01-03T19:12:39.642Z,101665.97
2023-01-03T19:15:30.628Z,101658.75
2023-01-03T19:18:20.719Z,101664.59
2023-01-03T19:21:10.431Z,101657.22
2023-01-03T19:24:04.755Z,101656.22
2023-01-03T19:26:55.135Z,101655.44
2023-01-03T19:29:44.345Z,101650.44
2023-01-03T19:32:33.497Z,101651.31
2023-01-03T19:35:24.582Z,101649.66
2023-01-03T19:38:13.336Z,101647.63
2023-01-03T19:41:03.390Z,101647.06
2023-01-03T19:43:52.364Z,101649.19
2023-01-03T19:46:41.031Z,101649.66
2023-01-03T19:49:29.895Z,101645.06
2023-01-03T19:52:20.119Z,101654.38
2023-01-03T19:55:10.514Z,101655.41
2023-01-03T19:58:00.236Z,101652.63
2023-01-03T20:00:49.629Z,101652.06
2023-01-03T20:03:40.246Z,101638.03
2023-01-03T20:06:29.042Z,101646.25
2023-01-03T20:09:19.114Z,101639.69
2023-01-03T20:12:11.210Z,101652.41
2023-01-03T20:15:06.488Z,101641.69
2023-01-03T20:17:56.752Z,101638.91
2023-01-03T20:20:45.911Z,101650.19
2023-01-03T20:23:36.792Z,101643.16
2023-01-03T20:26:28.508Z,101649.81
2023-01-03T20:29:17.179Z,101637.44
2023-01-03T20:32:06.261Z,101644.47
2023-01-03T20:34:55.076Z,101640.47
2023-01-03T20:37:45.045Z,101636.13
2023-01-03T20:40:33.782Z,101639.00
2023-01-03T20:43:24.180Z,101625.25
2023-01-03T20:46:19.166Z,101632.81
2023-01-03T20:49:13.166Z,101625.34
2023-01-03T20:52:02.400Z,101632.66
2023-01-03T20:54:51.291Z,101628.81
2023-01-03T20:57:39.961Z,101627.50
2023-01-03T21:00:32.053Z,101621.56
2023-01-03T21:03:20.900Z,101621.47
2023-01-03T21:06:18.217Z,101619.28
2023-01-03T21:09:07.122Z,101617.56
2023-01-03T21:11:55.702Z,101616.94
2023-01-03T21:14:44.463Z,101627.66
2023-01-03T21:17:34.657Z,101617.31
2023-01-03T21:20:25.302Z,101618.78
2023-01-03T21:23:17.768Z,101619.97
2023-01-03T21:26:07.597Z,101619.34
2023-01-03T21:28:56.217Z,101610.06
2023-01-03T21:31:45.238Z,101608.56
2023-01-03T21:34:35.252Z,101599.19
2023-01-03T21:37:26.022Z,101599.66
2023-01-03T21:40:17.935Z,101603.25
2023-01-03T21:43:06.719Z,101604.94
2023-01-03T21:45:59.036Z,101603.38
2023-01-03T21:48:47.972Z,101602.19
2023-01-03T21:51:39.263Z,101596.63
2023-01-03T21:54:28.093Z,101594.78
2023-01-03T21:57:22.943Z,101586.91
2023-01-03T22:00:16.958Z,101585.72
2023-01-03T22:03:24.010Z,101580.00
2023-01-03T22:06:14.111Z,101584.97
2023-01-03T22:09:06.105Z,101580.91
2023-01-03T22:11:58.354Z,101583.31
2023-01-03T22:14:47.858Z,101579.25
2023-01-03T22:17:43.556Z,101577.78
2023-01-03T22:20:38.477Z,101575.91
2023-01-03T22:23:27.501Z,101575.91
2023-01-03T22:26:17.997Z,101583.41
2023-01-03T22:29:07.199Z,101582.84
2023-01-03T22:31:55.876Z,101580.16
2023-01-03T22:34:44.518Z,101578.13
2023-01-03T22:37:33.168Z,101580.16
2023-01-03T22:40:22.060Z,101578.69
2023-01-03T22:43:12.189Z,101574.94
2023-01-03T22:46:01.008Z,101577.25
2023-01-03T22:48:49.888Z,101577.97
2023-01-03T22:51:38.514Z,101577.25
2023-01-03T22:54:27.191Z,101575.97
2023-01-03T22:57:15.842Z,101578.56
2023-01-03T23:00:10.453Z,101579.84
2023-01-03T23:02:59.149Z,101571.41
2023-01-03T23:05:47.848Z,101567.97
2023-01-03T23:08:37.143Z,101566.31
2023-01-03T23:11:44.552Z,101559.28
2023-01-03T23:14:33.570Z,101558.69
2023-01-03T23:17:41.237Z,101553.47
2023-01-03T23:20:32.463Z,101552.94
2023-01-03T23:23:21.156Z,101563.88
2023-01-03T23:26:10.553Z,101556.75
2023-01-03T23:29:00.236Z,101554.72
2023-01-03T23:31:48.858Z,101547.72
2023-01-03T23:34:38.926Z,101546.78
2023-01-03T23:37:28.412Z,101544.75
2023-01-03T23:40:18.141Z,101542.13
2023-01-03T23:43:06.792Z,101543.31
2023-01-03T23:45:55.640Z,101553.56
2023-01-03T23:48:44.254Z,101540.84
2023-01-03T23:51:34.278Z,101536.19
2023-01-03T23:54:23.027Z,101530.84
2023-01-03T23:57:11.681Z,101531.19
